Aérodrome :
LOGIN :

S'inscrire | Disclaimer

   EN    FR    IT 

 










Légende :    VFR   VFR Marginal   IFR   IFR Intensif   IFR Très Intensif
Visi : 
Plafond : 
>= 8 km
>= 3000ft
5 à 8 km
1000 à 3000 ft
1500m à 5 km
500 à 1000 ft
800 à 1500m
200 à 500 ft
< 800m
< 200 ft
Symboles :   Orages  Brouillard  Fortes neiges  Fortes précipitations  Vent > 20 kt
SIGMETs :   Divers  Orages  Givrage  Turbulence  Onde Orograph.  Cendres Volcan.







- Altitude de l'aérodrome : 121 ft
- Code IATA : HUY
- Voir les cartes d'approche


EGNJ - Humberside

DERNIER METAR :
  • 190220Z AUTO 08009KT 9999 FEW025/// SCT030/// OVC035/// 09/07 Q1028

METARs EXPIRÉS :
  • 190150Z AUTO 07010KT 9999 FEW016/// SCT027/// OVC032/// 09/07 Q1028
  • 190120Z AUTO 07010KT 9000 FEW010/// BKN014/// BKN018/// 09/07 Q1029 RERA
  • 190050Z AUTO 06009KT 9999 BKN014/// OVC019/// 09/07 Q1029
  • 190020Z AUTO 07010KT 9999 BKN018/// BKN024/// OVC030/// 09/06 Q1029
  • 182350Z AUTO 07011KT 9999 BKN027/// OVC032/// 09/06 Q1029

TAF TAF EGNJ
Valide du 19 à 03h jusqu'au 19 à 12h UTC


190201Z 1903/1912 07008KT 9999 SCT020
PROB30
TEMPO 1903/1906 3000 DZ BKN014
PROB30
TEMPO 1906/1912 7000 SHRA
ATIS : +44 1652 682 020
Pas de NOTAMs connus pour ce terrain.



MET'MAP, la Météo Aéronautique d'un coup d'oeil ! - Copyright ORBIFLY Décembre 2007 - Disclaimer

ORBIFLY MET'MAP TEAM :

Programmation & Développement : Alexandra Zaïnal
Conception & Développement : Baudouin d'Aumeries
Co-Programmation & Développement : Marc-Olivier Méhu
Soutien technique & logistique : Manuel Goepfert

Contact : metmap@orbifly.com




SOURCES & CREDITS :

   NOAA